sensor_id;sensor_type;location;lat;lon;timestamp;pressure;altitude;pressure_sealevel;temperature;humidity
51261;BME280;61705;46.228;24.812;2024-01-06T00:02:02;97174.75;;;-1.19;100.00
51261;BME280;61705;46.228;24.812;2024-01-06T00:04:29;97178.19;;;-1.18;100.00
51261;BME280;61705;46.228;24.812;2024-01-06T00:06:56;97181.66;;;-1.18;100.00
51261;BME280;61705;46.228;24.812;2024-01-06T00:09:23;97185.13;;;-1.24;100.00
51261;BME280;61705;46.228;24.812;2024-01-06T00:11:49;97185.97;;;-1.20;100.00
51261;BME280;61705;46.228;24.812;2024-01-06T00:14:16;97189.44;;;-1.21;100.00
51261;BME280;61705;46.228;24.812;2024-01-06T00:16:44;97176.53;;;-1.26;100.00
51261;BME280;61705;46.228;24.812;2024-01-06T00:19:11;97176.56;;;-1.32;100.00
51261;BME280;61705;46.228;24.812;2024-01-06T00:21:37;97181.78;;;-1.41;100.00
51261;BME280;61705;46.228;24.812;2024-01-06T00:24:04;97198.19;;;-1.36;100.00
51261;BME280;61705;46.228;24.812;2024-01-06T00:26:31;97181.78;;;-1.36;100.00
51261;BME280;61705;46.228;24.812;2024-01-06T00:28:57;97178.34;;;-1.40;100.00
51261;BME280;61705;46.228;24.812;2024-01-06T00:31:24;97187.84;;;-1.42;100.00
51261;BME280;61705;46.228;24.812;2024-01-06T00:33:51;97193.91;;;-1.41;100.00
51261;BME280;61705;46.228;24.812;2024-01-06T00:36:18;97193.91;;;-1.41;100.00
51261;BME280;61705;46.228;24.812;2024-01-06T00:38:45;97188.75;;;-1.48;100.00
51261;BME280;61705;46.228;24.812;2024-01-06T00:41:11;97189.63;;;-1.52;100.00
51261;BME280;61705;46.228;24.812;2024-01-06T00:43:38;97186.22;;;-1.55;100.00
51261;BME280;61705;46.228;24.812;2024-01-06T00:46:04;97184.50;;;-1.59;100.00
51261;BME280;61705;46.228;24.812;2024-01-06T00:48:31;97177.56;;;-1.53;100.00
51261;BME280;61705;46.228;24.812;2024-01-06T00:51:00;97184.47;;;-1.50;100.00
51261;BME280;61705;46.228;24.812;2024-01-06T00:53:26;97176.69;;;-1.55;100.00
51261;BME280;61705;46.228;24.812;2024-01-06T00:55:58;97177.56;;;-1.56;100.00
51261;BME280;61705;46.228;24.812;2024-01-06T00:58:25;97178.44;;;-1.55;100.00
51261;BME280;61705;46.228;24.812;2024-01-06T01:00:52;97166.41;;;-1.65;100.00
51261;BME280;61705;46.228;24.812;2024-01-06T01:03:19;97159.53;;;-1.70;100.00
51261;BME280;61705;46.228;24.812;2024-01-06T01:05:45;97161.25;;;-1.70;100.00
51261;BME280;61705;46.228;24.812;2024-01-06T01:08:15;97156.13;;;-1.79;100.00
51261;BME280;61705;46.228;24.812;2024-01-06T01:10:42;97152.72;;;-1.84;100.00
51261;BME280;61705;46.228;24.812;2024-01-06T01:13:08;97151.81;;;-1.85;100.00
51261;BME280;61705;46.228;24.812;2024-01-06T01:15:35;97146.56;;;-1.68;100.00
51261;BME280;61705;46.228;24.812;2024-01-06T01:18:02;97147.41;;;-1.64;100.00
51261;BME280;61705;46.228;24.812;2024-01-06T01:20:28;97146.56;;;-1.70;100.00
51261;BME280;61705;46.228;24.812;2024-01-06T01:22:58;97143.16;;;-1.73;100.00
51261;BME280;61705;46.228;24.812;2024-01-06T01:25:24;97150.94;;;-1.78;100.00
51261;BME280;61705;46.228;24.812;2024-01-06T01:27:51;97142.31;;;-1.81;100.00
51261;BME280;61705;46.228;24.812;2024-01-06T01:30:18;97130.22;;;-1.76;100.00
51261;BME280;61705;46.228;24.812;2024-01-06T01:32:45;97141.44;;;-1.79;100.00
51261;BME280;61705;46.228;24.812;2024-01-06T01:35:12;97144.03;;;-1.82;100.00
51261;BME280;61705;46.228;24.812;2024-01-06T01:37:38;97148.34;;;-1.76;100.00
51261;BME280;61705;46.228;24.812;2024-01-06T01:40:05;97150.06;;;-1.81;100.00
51261;BME280;61705;46.228;24.812;2024-01-06T01:42:32;97146.63;;;-1.77;100.00
51261;BME280;61705;46.228;24.812;2024-01-06T01:44:59;97152.66;;;-1.74;100.00
51261;BME280;61705;46.228;24.812;2024-01-06T01:47:26;97152.66;;;-1.74;100.00
51261;BME280;61705;46.228;24.812;2024-01-06T01:49:53;97150.03;;;-1.72;100.00
51261;BME280;61705;46.228;24.812;2024-01-06T01:52:21;97148.28;;;-1.65;100.00
51261;BME280;61705;46.228;24.812;2024-01-06T01:54:47;97137.97;;;-1.73;100.00
51261;BME280;61705;46.228;24.812;2024-01-06T01:57:15;97134.50;;;-1.72;100.00
51261;BME280;61705;46.228;24.812;2024-01-06T01:59:45;97131.88;;;-1.68;100.00
51261;BME280;61705;46.228;24.812;2024-01-06T02:02:12;97117.22;;;-1.67;100.00
51261;BME280;61705;46.228;24.812;2024-01-06T02:04:39;97126.72;;;-1.69;100.00
51261;BME280;61705;46.228;24.812;2024-01-06T02:07:07;97119.81;;;-1.67;100.00
51261;BME280;61705;46.228;24.812;2024-01-06T02:09:34;97115.44;;;-1.62;100.00
51261;BME280;61705;46.228;24.812;2024-01-06T02:12:03;97104.19;;;-1.61;100.00
51261;BME280;61705;46.228;24.812;2024-01-06T02:14:29;97105.09;;;-1.68;100.00
51261;BME280;61705;46.228;24.812;2024-01-06T02:16:56;97095.63;;;-1.69;100.00
51261;BME280;61705;46.228;24.812;2024-01-06T02:19:23;97098.25;;;-1.75;100.00
51261;BME280;61705;46.228;24.812;2024-01-06T02:21:51;97096.56;;;-1.78;100.00
51261;BME280;61705;46.228;24.812;2024-01-06T02:24:18;97099.16;;;-1.79;100.00
51261;BME280;61705;46.228;24.812;2024-01-06T02:26:45;97097.44;;;-1.82;100.00
51261;BME280;61705;46.228;24.812;2024-01-06T02:29:12;97087.97;;;-1.84;100.00
51261;BME280;61705;46.228;24.812;2024-01-06T02:31:41;97086.25;;;-1.88;100.00
51261;BME280;61705;46.228;24.812;2024-01-06T02:34:08;97088.03;;;-1.97;100.00
51261;BME280;61705;46.228;24.812;2024-01-06T02:36:35;97084.56;;;-1.96;100.00
51261;BME280;61705;46.228;24.812;2024-01-06T02:39:01;97088.88;;;-1.93;100.00
51261;BME280;61705;46.228;24.812;2024-01-06T02:41:28;97084.56;;;-1.96;100.00
51261;BME280;61705;46.228;24.812;2024-01-06T02:43:55;97075.06;;;-1.94;100.00
51261;BME280;61705;46.228;24.812;2024-01-06T02:46:22;97084.59;;;-1.97;100.00
51261;BME280;61705;46.228;24.812;2024-01-06T02:48:49;97082.84;;;-1.95;100.00
51261;BME280;61705;46.228;24.812;2024-01-06T02:51:16;97088.84;;;-1.88;100.00
51261;BME280;61705;46.228;24.812;2024-01-06T02:53:43;97084.53;;;-1.88;100.00
51261;BME280;61705;46.228;24.812;2024-01-06T02:56:10;97083.75;;;-2.04;100.00
51261;BME280;61705;46.228;24.812;2024-01-06T02:58:37;97087.19;;;-2.02;100.00
51261;BME280;61705;46.228;24.812;2024-01-06T03:01:04;97079.41;;;-2.02;100.00
51261;BME280;61705;46.228;24.812;2024-01-06T03:03:31;97075.06;;;-1.94;100.00
51261;BME280;61705;46.228;24.812;2024-01-06T03:05:58;97075.91;;;-1.92;100.00
51261;BME280;61705;46.228;24.812;2024-01-06T03:08:24;97070.69;;;-1.84;100.00
51261;BME280;61705;46.228;24.812;2024-01-06T03:10:51;97073.31;;;-1.88;100.00
51261;BME280;61705;46.228;24.812;2024-01-06T03:13:18;97076.78;;;-1.88;100.00
51261;BME280;61705;46.228;24.812;2024-01-06T03:15:44;97077.56;;;-1.81;100.00
51261;BME280;61705;46.228;24.812;2024-01-06T03:18:12;97068.06;;;-1.79;100.00
51261;BME280;61705;46.228;24.812;2024-01-06T03:20:39;97058.50;;;-1.70;100.00
51261;BME280;61705;46.228;24.812;2024-01-06T03:23:05;97061.94;;;-1.66;100.00
51261;BME280;61705;46.228;24.812;2024-01-06T03:25:32;97067.09;;;-1.60;100.00
51261;BME280;61705;46.228;24.812;2024-01-06T03:27:59;97062.69;;;-1.52;100.00
51261;BME280;61705;46.228;24.812;2024-01-06T03:30:25;97060.06;;;-1.49;100.00
51261;BME280;61705;46.228;24.812;2024-01-06T03:32:52;97056.59;;;-1.45;100.00
51261;BME280;61705;46.228;24.812;2024-01-06T03:35:19;97054.91;;;-1.50;100.00
51261;BME280;61705;46.228;24.812;2024-01-06T03:37:46;97048.03;;;-1.53;100.00
51261;BME280;61705;46.228;24.812;2024-01-06T03:40:12;97049.78;;;-1.58;100.00
51261;BME280;61705;46.228;24.812;2024-01-06T03:42:39;97047.19;;;-1.58;100.00
51261;BME280;61705;46.228;24.812;2024-01-06T03:45:06;97045.44;;;-1.54;100.00
51261;BME280;61705;46.228;24.812;2024-01-06T03:47:32;97041.97;;;-1.52;100.00
51261;BME280;61705;46.228;24.812;2024-01-06T03:49:59;97037.69;;;-1.57;100.00
51261;BME280;61705;46.228;24.812;2024-01-06T03:52:26;97037.66;;;-1.54;100.00
51261;BME280;61705;46.228;24.812;2024-01-06T03:54:52;97033.38;;;-1.54;100.00
51261;BME280;61705;46.228;24.812;2024-01-06T03:57:19;97034.22;;;-1.53;100.00
51261;BME280;61705;46.228;24.812;2024-01-06T03:59:46;97035.91;;;-1.51;100.00
51261;BME280;61705;46.228;24.812;2024-01-06T04:02:12;97030.72;;;-1.51;100.00
51261;BME280;61705;46.228;24.812;2024-01-06T04:04:39;97029.88;;;-1.51;100.00
51261;BME280;61705;46.228;24.812;2024-01-06T04:07:05;97024.72;;;-1.53;100.00
51261;BME280;61705;46.228;24.812;2024-01-06T04:09:33;97032.47;;;-1.53;100.00
51261;BME280;61705;46.228;24.812;2024-01-06T04:11:59;97031.59;;;-1.52;100.00
51261;BME280;61705;46.228;24.812;2024-01-06T04:14:27;97031.63;;;-1.53;100.00
51261;BME280;61705;46.228;24.812;2024-01-06T04:16:54;97035.97;;;-1.57;100.00
51261;BME280;61705;46.228;24.812;2024-01-06T04:19:23;97039.44;;;-1.59;100.00
51261;BME280;61705;46.228;24.812;2024-01-06T04:21:50;97039.44;;;-1.59;100.00
51261;BME280;61705;46.228;24.812;2024-01-06T04:24:17;97032.53;;;-1.62;100.00
51261;BME280;61705;46.228;24.812;2024-01-06T04:26:44;97030.00;;;-1.67;100.00
51261;BME280;61705;46.228;24.812;2024-01-06T04:29:12;97022.22;;;-1.63;100.00
51261;BME280;61705;46.228;24.812;2024-01-06T04:31:40;97020.50;;;-1.66;100.00
51261;BME280;61705;46.228;24.812;2024-01-06T04:34:07;97024.81;;;-1.65;100.00
51261;BME280;61705;46.228;24.812;2024-01-06T04:36:36;97026.50;;;-1.62;100.00
51261;BME280;61705;46.228;24.812;2024-01-06T04:39:03;97019.63;;;-1.63;100.00
51261;BME280;61705;46.228;24.812;2024-01-06T04:41:30;97030.78;;;-1.58;100.00
51261;BME280;61705;46.228;24.812;2024-01-06T04:43:56;97030.75;;;-1.52;100.00
51261;BME280;61705;46.228;24.812;2024-01-06T04:46:23;97024.72;;;-1.53;100.00
51261;BME280;61705;46.228;24.812;2024-01-06T04:48:50;97018.59;;;-1.46;100.00
51261;BME280;61705;46.228;24.812;2024-01-06T04:51:17;97034.09;;;-1.39;100.00
51261;BME280;61705;46.228;24.812;2024-01-06T04:53:43;97034.94;;;-1.36;100.00
51261;BME280;61705;46.228;24.812;2024-01-06T04:56:10;97034.84;;;-1.28;100.00
51261;BME280;61705;46.228;24.812;2024-01-06T04:58:36;97022.69;;;-1.23;100.00
51261;BME280;61705;46.228;24.812;2024-01-06T05:01:05;97025.34;;;-1.28;100.00
51261;BME280;61705;46.228;24.812;2024-01-06T05:03:32;97024.50;;;-1.28;100.00
51261;BME280;61705;46.228;24.812;2024-01-06T05:05:59;97028.78;;;-1.26;100.00
51261;BME280;61705;46.228;24.812;2024-01-06T05:08:26;97021.81;;;-1.19;100.00
51261;BME280;61705;46.228;24.812;2024-01-06T05:10:52;97017.47;;;-1.15;100.00
51261;BME280;61705;46.228;24.812;2024-01-06T05:13:20;97006.25;;;-1.16;100.00
51261;BME280;61705;46.228;24.812;2024-01-06T05:15:46;97002.72;;;-1.13;100.00
51261;BME280;61705;46.228;24.812;2024-01-06T05:18:13;97011.31;;;-1.07;100.00
51261;BME280;61705;46.228;24.812;2024-01-06T05:20:40;97005.22;;;-1.03;100.00
51261;BME280;61705;46.228;24.812;2024-01-06T05:23:09;97012.97;;;-1.03;100.00
51261;BME280;61705;46.228;24.812;2024-01-06T05:25:36;97012.94;;;-1.00;100.00
51261;BME280;61705;46.228;24.812;2024-01-06T05:28:03;97006.06;;;-0.99;100.00
51261;BME280;61705;46.228;24.812;2024-01-06T05:30:29;97009.44;;;-0.94;100.00
51261;BME280;61705;46.228;24.812;2024-01-06T05:32:56;97003.47;;;-0.99;100.00
51261;BME280;61705;46.228;24.812;2024-01-06T05:35:23;97008.66;;;-0.99;100.00
51261;BME280;61705;46.228;24.812;2024-01-06T05:37:49;97003.44;;;-0.98;100.00
51261;BME280;61705;46.228;24.812;2024-01-06T05:40:16;97004.34;;;-1.02;100.00
51261;BME280;61705;46.228;24.812;2024-01-06T05:42:43;97000.88;;;-1.01;100.00
51261;BME280;61705;46.228;24.812;2024-01-06T05:45:12;96996.47;;;-0.94;100.00
51261;BME280;61705;46.228;24.812;2024-01-06T05:47:39;96990.50;;;-0.99;100.00
51261;BME280;61705;46.228;24.812;2024-01-06T05:50:06;96998.31;;;-1.02;100.00
51261;BME280;61705;46.228;24.812;2024-01-06T05:52:36;96992.28;;;-1.04;100.00
51261;BME280;61705;46.228;24.812;2024-01-06T05:55:03;96979.19;;;-0.93;100.00
51261;BME280;61705;46.228;24.812;2024-01-06T05:57:32;96986.16;;;-0.99;100.00
51261;BME280;61705;46.228;24.812;2024-01-06T05:59:59;96987.91;;;-1.01;100.00
51261;BME280;61705;46.228;24.812;2024-01-06T06:02:25;96987.88;;;-0.98;100.00
51261;BME280;61705;46.228;24.812;2024-01-06T06:04:52;96991.38;;;-1.02;100.00
51261;BME280;61705;46.228;24.812;2024-01-06T06:07:19;96995.69;;;-0.99;100.00
51261;BME280;61705;46.228;24.812;2024-01-06T06:09:47;96984.50;;;-1.04;100.00
51261;BME280;61705;46.228;24.812;2024-01-06T06:12:17;96993.94;;;-1.00;100.00
51261;BME280;61705;46.228;24.812;2024-01-06T06:14:44;96993.03;;;-0.94;100.00
51261;BME280;61705;46.228;24.812;2024-01-06T06:17:10;96992.16;;;-0.92;100.00
51261;BME280;61705;46.228;24.812;2024-01-06T06:19:37;96988.66;;;-0.91;100.00
51261;BME280;61705;46.228;24.812;2024-01-06T06:22:04;96987.72;;;-0.84;100.00
51261;BME280;61705;46.228;24.812;2024-01-06T06:24:31;96991.09;;;-0.79;100.00
51261;BME280;61705;46.228;24.812;2024-01-06T06:26:57;96992.81;;;-0.75;100.00
51261;BME280;61705;46.228;24.812;2024-01-06T06:29:24;96988.47;;;-0.74;100.00
51261;BME280;61705;46.228;24.812;2024-01-06T06:31:51;96986.63;;;-0.64;100.00
51261;BME280;61705;46.228;24.812;2024-01-06T06:34:17;96978.66;;;-0.52;100.00
51261;BME280;61705;46.228;24.812;2024-01-06T06:36:45;96961.34;;;-0.52;100.00
51261;BME280;61705;46.228;24.812;2024-01-06T06:39:12;96969.09;;;-0.47;100.00
51261;BME280;61705;46.228;24.812;2024-01-06T06:41:41;96977.59;;;-0.36;100.00
51261;BME280;61705;46.228;24.812;2024-01-06T06:44:08;96987.97;;;-0.36;100.00
51261;BME280;61705;46.228;24.812;2024-01-06T06:46:34;96998.31;;;-0.34;100.00
51261;BME280;61705;46.228;24.812;2024-01-06T06:49:01;96991.38;;;-0.31;100.00
51261;BME280;61705;46.228;24.812;2024-01-06T06:51:31;96986.16;;;-0.29;100.00
51261;BME280;61705;46.228;24.812;2024-01-06T06:53:58;96981.69;;;-0.21;100.00
51261;BME280;61705;46.228;24.812;2024-01-06T06:56:27;96986.00;;;-0.18;100.00
51261;BME280;61705;46.228;24.812;2024-01-06T06:58:54;96983.31;;;-0.14;100.00
51261;BME280;61705;46.228;24.812;2024-01-06T07:01:20;96986.66;;;-0.04;100.00
51261;BME280;61705;46.228;24.812;2024-01-06T07:03:47;96983.19;;;-0.03;100.00
51261;BME280;61705;46.228;24.812;2024-01-06T07:06:14;96983.16;;;0.00;100.00
51261;BME280;61705;46.228;24.812;2024-01-06T07:08:41;96977.06;;;-0.01;100.00
51261;BME280;61705;46.228;24.812;2024-01-06T07:11:12;96977.84;;;0.06;100.00
51261;BME280;61705;46.228;24.812;2024-01-06T07:13:41;96968.22;;;0.13;100.00
51261;BME280;61705;46.228;24.812;2024-01-06T07:16:08;96961.31;;;0.12;100.00
51261;BME280;61705;46.228;24.812;2024-01-06T07:18:44;96959.53;;;0.15;100.00
51261;BME280;61705;46.228;24.812;2024-01-06T07:21:15;96962.84;;;0.25;100.00
51261;BME280;61705;46.228;24.812;2024-01-06T07:23:41;96965.44;;;0.25;100.00
51261;BME280;61705;46.228;24.812;2024-01-06T07:26:10;96967.16;;;0.26;100.00
51261;BME280;61705;46.228;24.812;2024-01-06T07:28:36;96964.59;;;0.25;100.00
51261;BME280;61705;46.228;24.812;2024-01-06T07:31:03;96975.66;;;0.36;100.00
51261;BME280;61705;46.228;24.812;2024-01-06T07:33:31;96959.19;;;0.35;100.00
51261;BME280;61705;46.228;24.812;2024-01-06T07:35:58;96953.97;;;0.38;100.00
51261;BME280;61705;46.228;24.812;2024-01-06T07:38:25;96959.81;;;0.50;100.00
51261;BME280;61705;46.228;24.812;2024-01-06T07:40:51;96962.38;;;0.53;100.00
51261;BME280;61705;46.228;24.812;2024-01-06T07:43:18;96953.69;;;0.54;100.00
51261;BME280;61705;46.228;24.812;2024-01-06T07:45:45;96955.38;;;0.56;100.00
51261;BME280;61705;46.228;24.812;2024-01-06T07:48:15;96965.66;;;0.62;100.00
51261;BME280;61705;46.228;24.812;2024-01-06T07:50:51;96958.72;;;0.63;100.00
51261;BME280;61705;46.228;24.812;2024-01-06T07:53:20;96965.69;;;0.61;100.00
51261;BME280;61705;46.228;24.812;2024-01-06T07:55:47;96965.69;;;0.61;100.00
51261;BME280;61705;46.228;24.812;2024-01-06T07:58:13;96966.38;;;0.70;100.00
51261;BME280;61705;46.228;24.812;2024-01-06T08:00:40;96956.78;;;0.74;100.00
51261;BME280;61705;46.228;24.812;2024-01-06T08:03:07;96967.22;;;0.73;100.00
51261;BME280;61705;46.228;24.812;2024-01-06T08:05:34;96956.78;;;0.76;100.00
51261;BME280;61705;46.228;24.812;2024-01-06T08:08:00;96959.13;;;0.88;100.00
51261;BME280;61705;46.228;24.812;2024-01-06T08:10:27;96954.72;;;0.91;100.00
51261;BME280;61705;46.228;24.812;2024-01-06T08:12:53;96952.81;;;1.01;100.00
51261;BME280;61705;46.228;24.812;2024-01-06T08:15:20;96953.59;;;1.06;100.00
51261;BME280;61705;46.228;24.812;2024-01-06T08:17:47;96941.22;;;1.17;100.00
51261;BME280;61705;46.228;24.812;2024-01-06T08:20:17;96944.66;;;1.18;100.00
51261;BME280;61705;46.228;24.812;2024-01-06T08:22:49;96936.69;;;1.27;100.00
51261;BME280;61705;46.228;24.812;2024-01-06T08:25:26;96933.19;;;1.28;100.00
51261;BME280;61705;46.228;24.812;2024-01-06T08:27:53;96936.56;;;1.32;100.00
51261;BME280;61705;46.228;24.812;2024-01-06T08:30:20;96933.75;;;1.42;100.00
51261;BME280;61705;46.228;24.812;2024-01-06T08:32:53;96922.44;;;1.43;100.00
51261;BME280;61705;46.228;24.812;2024-01-06T08:35:25;96919.88;;;1.42;100.00
51261;BME280;61705;46.228;24.812;2024-01-06T08:37:51;96921.44;;;1.49;100.00
51261;BME280;61705;46.228;24.812;2024-01-06T08:40:18;96928.34;;;1.50;100.00
51261;BME280;61705;46.228;24.812;2024-01-06T08:42:45;96923.03;;;1.56;100.00
51261;BME280;61705;46.228;24.812;2024-01-06T08:45:11;96915.19;;;1.58;100.00
51261;BME280;61705;46.228;24.812;2024-01-06T08:47:42;96915.97;;;1.61;100.00
51261;BME280;61705;46.228;24.812;2024-01-06T08:50:11;96925.38;;;1.67;100.00
51261;BME280;61705;46.228;24.812;2024-01-06T08:52:38;96921.94;;;1.66;100.00
51261;BME280;61705;46.228;24.812;2024-01-06T08:55:05;96917.44;;;1.75;100.00
51261;BME280;61705;46.228;24.812;2024-01-06T08:57:32;96915.47;;;1.83;100.00
51261;BME280;61705;46.228;24.812;2024-01-06T08:59:59;96915.31;;;1.90;100.00
51261;BME280;61705;46.228;24.812;2024-01-06T09:02:29;96907.53;;;1.89;100.00
51261;BME280;61705;46.228;24.812;2024-01-06T09:04:56;96905.91;;;1.83;100.00
51261;BME280;61705;46.228;24.812;2024-01-06T09:07:23;96894.53;;;1.87;100.00
51261;BME280;61705;46.228;24.812;2024-01-06T09:09:50;96891.91;;;1.89;100.00
51261;BME280;61705;46.228;24.812;2024-01-06T09:12:18;96886.56;;;1.95;100.00
51261;BME280;61705;46.228;24.812;2024-01-06T09:14:44;96884.88;;;1.91;100.00
51261;BME280;61705;46.228;24.812;2024-01-06T09:17:11;96881.34;;;1.95;100.00
51261;BME280;61705;46.228;24.812;2024-01-06T09:19:38;96886.22;;;2.07;100.00
51261;BME280;61705;46.228;24.812;2024-01-06T09:22:05;96881.59;;;2.20;100.00
51261;BME280;61705;46.228;24.812;2024-01-06T09:24:31;96871.09;;;2.22;100.00
51261;BME280;61705;46.228;24.812;2024-01-06T09:27:12;96875.19;;;2.32;100.00
51261;BME280;61705;46.228;24.812;2024-01-06T09:29:39;96865.59;;;2.32;100.00
51261;BME280;61705;46.228;24.812;2024-01-06T09:32:06;96862.91;;;2.37;100.00
51261;BME280;61705;46.228;24.812;2024-01-06T09:34:32;96860.84;;;2.50;100.00
51261;BME280;61705;46.228;24.812;2024-01-06T09:37:04;96858.03;;;2.56;100.00
51261;BME280;61705;46.228;24.812;2024-01-06T09:39:30;96850.88;;;2.64;100.00
51261;BME280;61705;46.228;24.812;2024-01-06T09:41:58;96855.06;;;2.70;100.00
51261;BME280;61705;46.228;24.812;2024-01-06T09:44:24;96852.06;;;2.83;100.00
51261;BME280;61705;46.228;24.812;2024-01-06T09:46:51;96846.56;;;2.94;100.00
51261;BME280;61705;46.228;24.812;2024-01-06T09:49:20;96842.97;;;2.98;100.00
51261;BME280;61705;46.228;24.812;2024-01-06T09:51:50;96845.47;;;3.01;100.00
51261;BME280;61705;46.228;24.812;2024-01-06T09:54:22;96844.50;;;3.05;100.00
51261;BME280;61705;46.228;24.812;2024-01-06T09:56:49;96839.13;;;3.10;100.00
51261;BME280;61705;46.228;24.812;2024-01-06T09:59:15;96834.44;;;3.21;100.00
51261;BME280;61705;46.228;24.812;2024-01-06T10:01:42;96841.63;;;3.43;100.00
51261;BME280;61705;46.228;24.812;2024-01-06T10:04:09;96847.38;;;3.54;100.00
51261;BME280;61705;46.228;24.812;2024-01-06T10:06:36;96838.44;;;3.61;100.00
51261;BME280;61705;46.228;24.812;2024-01-06T10:09:03;96839.69;;;3.76;100.00
51261;BME280;61705;46.228;24.812;2024-01-06T10:11:35;96825.88;;;3.72;100.00
51261;BME280;61705;46.228;24.812;2024-01-06T10:14:03;96824.94;;;3.75;100.00
51261;BME280;61705;46.228;24.812;2024-01-06T10:16:30;96824.84;;;3.78;100.00
51261;BME280;61705;46.228;24.812;2024-01-06T10:18:56;96814.22;;;3.83;100.00
51261;BME280;61705;46.228;24.812;2024-01-06T10:21:24;96819.47;;;3.83;100.00
51261;BME280;61705;46.228;24.812;2024-01-06T10:23:52;96802.72;;;3.88;100.00
51261;BME280;61705;46.228;24.812;2024-01-06T10:26:20;96799.06;;;3.94;100.00
51261;BME280;61705;46.228;24.812;2024-01-06T10:28:49;96806.81;;;3.97;100.00
51261;BME280;61705;46.228;24.812;2024-01-06T10:31:17;96797.53;;;4.13;100.00
51261;BME280;61705;46.228;24.812;2024-01-06T10:33:44;96799.03;;;4.20;100.00
51261;BME280;61705;46.228;24.812;2024-01-06T10:36:11;96801.78;;;4.17;100.00
51261;BME280;61705;46.228;24.812;2024-01-06T10:38:39;96801.59;;;4.22;100.00
51261;BME280;61705;46.228;24.812;2024-01-06T10:41:06;96786.81;;;4.21;100.00
51261;BME280;61705;46.228;24.812;2024-01-06T10:43:36;96787.59;;;4.23;100.00
51261;BME280;61705;46.228;24.812;2024-01-06T10:46:07;96783.97;;;4.27;100.00
51261;BME280;61705;46.228;24.812;2024-01-06T10:48:37;96782.16;;;4.29;100.00
51261;BME280;61705;46.228;24.812;2024-01-06T10:51:12;96770.38;;;4.42;100.00
51261;BME280;61705;46.228;24.812;2024-01-06T10:53:41;96776.81;;;4.57;100.00
51261;BME280;61705;46.228;24.812;2024-01-06T10:56:07;96754.50;;;4.70;100.00
51261;BME280;61705;46.228;24.812;2024-01-06T10:58:34;96757.56;;;4.82;100.00
51261;BME280;61705;46.228;24.812;2024-01-06T11:01:09;96745.81;;;4.93;100.00
51261;BME280;61705;46.228;24.812;2024-01-06T11:03:36;96744.34;;;4.86;100.00
51261;BME280;61705;46.228;24.812;2024-01-06T11:06:05;96741.41;;;4.94;100.00
51261;BME280;61705;46.228;24.812;2024-01-06T11:08:32;96735.38;;;4.92;100.00
51261;BME280;61705;46.228;24.812;2024-01-06T11:11:01;96728.25;;;4.95;100.00
51261;BME280;61705;46.228;24.812;2024-01-06T11:13:28;96731.69;;;4.97;100.00
51261;BME280;61705;46.228;24.812;2024-01-06T11:15:55;96728.22;;;4.97;100.00
51261;BME280;61705;46.228;24.812;2024-01-06T11:23:44;96714.94;;;4.80;100.00
51261;BME280;61705;46.228;24.812;2024-01-06T11:26:11;96703.59;;;4.79;100.00
51261;BME280;61705;46.228;24.812;2024-01-06T11:28:47;96707.31;;;4.73;100.00
51261;BME280;61705;46.228;24.812;2024-01-06T11:31:14;96703.72;;;4.76;100.00
51261;BME280;61705;46.228;24.812;2024-01-06T11:33:46;96709.72;;;4.78;100.00
51261;BME280;61705;46.228;24.812;2024-01-06T11:36:18;96703.66;;;4.78;100.00
51261;BME280;61705;46.228;24.812;2024-01-06T11:38:46;96697.38;;;4.82;100.00
51261;BME280;61705;46.228;24.812;2024-01-06T11:44:02;96695.22;;;4.93;100.00
51261;BME280;61705;46.228;24.812;2024-01-06T11:46:29;96687.25;;;4.96;100.00
51261;BME280;61705;46.228;24.812;2024-01-06T11:48:55;96676.41;;;5.05;100.00
51261;BME280;61705;46.228;24.812;2024-01-06T11:51:22;96679.69;;;5.10;100.00
51261;BME280;61705;46.228;24.812;2024-01-06T11:54:11;96671.88;;;5.09;100.00
51261;BME280;61705;46.228;24.812;2024-01-06T11:56:41;96667.94;;;5.20;100.00
51261;BME280;61705;46.228;24.812;2024-01-06T11:59:08;96670.31;;;5.27;100.00
51261;BME280;61705;46.228;24.812;2024-01-06T12:01:38;96672.53;;;5.36;100.00
51261;BME280;61705;46.228;24.812;2024-01-06T12:04:05;96667.66;;;5.49;100.00
51261;BME280;61705;46.228;24.812;2024-01-06T12:06:32;96662.41;;;5.49;100.00
51261;BME280;61705;46.228;24.812;2024-01-06T12:09:05;96656.34;;;5.68;100.00
51261;BME280;61705;46.228;24.812;2024-01-06T12:11:31;96653.63;;;5.70;100.00
51261;BME280;61705;46.228;24.812;2024-01-06T12:13:58;96648.22;;;5.75;100.00
51261;BME280;61705;46.228;24.812;2024-01-06T12:16:25;96643.81;;;5.75;100.00
51261;BME280;61705;46.228;24.812;2024-01-06T12:18:53;96644.69;;;5.96;100.00
51261;BME280;61705;46.228;24.812;2024-01-06T12:21:24;96650.44;;;6.04;100.00
51261;BME280;61705;46.228;24.812;2024-01-06T12:23:50;96644.94;;;6.10;100.00
51261;BME280;61705;46.228;24.812;2024-01-06T12:26:17;96637.50;;;6.20;100.00
51261;BME280;61705;46.228;24.812;2024-01-06T12:28:48;96642.34;;;6.29;100.00
51261;BME280;61705;46.228;24.812;2024-01-06T12:31:15;96632.63;;;6.31;100.00
51261;BME280;61705;46.228;24.812;2024-01-06T12:33:42;96636.97;;;6.51;100.00
51261;BME280;61705;46.228;24.812;2024-01-06T12:36:09;96635.91;;;6.55;100.00
51261;BME280;61705;46.228;24.812;2024-01-06T12:38:51;96632.13;;;6.42;100.00
51261;BME280;61705;46.228;24.812;2024-01-06T12:41:18;96630.72;;;6.35;100.00
51261;BME280;61705;46.228;24.812;2024-01-06T12:43:45;96626.03;;;6.41;100.00
51261;BME280;61705;46.228;24.812;2024-01-06T12:46:11;96628.53;;;6.45;100.00
51261;BME280;61705;46.228;24.812;2024-01-06T12:48:38;96630.53;;;6.39;100.00
51261;BME280;61705;46.228;24.812;2024-01-06T12:51:05;96627.72;;;6.43;100.00
51261;BME280;61705;46.228;24.812;2024-01-06T12:53:31;96625.09;;;6.43;100.00
51261;BME280;61705;46.228;24.812;2024-01-06T12:55:58;96623.97;;;6.48;100.00